Portada
METAR-TAF:

METAR-TAF

Aeroports :

Plymouth Municipal Airport

Plymouth, Massachusetts, Estats Units d'Amèrica

latitud: 41-54-31N, longitud: 070-43-41W, altitud: 45 m

Observació

L'informe es va fer fa 27 minuts, a les 23:40 UTC
Vent 4 kt del Sud
Temperatura 19°C
Humitat 88%
Pressió 1011 hPa
Visibilitat: 16.1 km
Cel ennuvolat a una alçada de 1000 ft

METAR: KPYM 192340Z AUTO 19004KT 10SM BKN010 19/17 A2984 RMK AO2 T01890167

Hora: 20:07 (00:07 UTC)


TAF: manca

Observacions i pronòstics meteorològics de més de 4000 aeroports (METAR i TAF).

Les estacions disponibles són els punts grocs i vermells al mapa.

Posi el ratolí al punt desitjat per veure el nom de l'estació.

Feu clic per veure les observacions i els pronòstics meteorològics.

Per canviar el mapa: feu clic els botons verds amb una creu de color negre per apropar; al botó verd amb un guió per allunyar la imatge; o en les fletxes verdes per a mapes adjacents.


METAR-TAF: